Friend, Oregon
Current Conditions -  °F | °C
As of 2:53 PM on Thursday 18 Dec 2014 (Local Time) from KDLS Reporting Station
Broken Clouds Broken Clouds  
Wind Chill: 42°   Ceiling: 10000
Heat Index: 42°   Visibility: 10mi
Dew Point: 37°   Wind: 0mph
Humidity: 82%   Direction: NA
Pressure: 29.98"   Gusts: NA
Location:  45.3856°N, 121.15°W
Report Text: KDLS 182253Z AUTO 00000KT 10SM FEW016 BKN100 06/03 A2998 RMK AO2 RAE18 SLP153 P0000 T00560028
Loading
Personal Weather Stations






























Interactive Weather Map New forecast layout! Learn more

10-Day Weather Forecast

Advertisements
Track Severe Weather on mobile